sensor_id;sensor_type;location;lat;lon;timestamp;P1;durP1;ratioP1;P2;durP2;ratioP2
20090;SDS011;10205;49.678;6.560;2024-03-06T00:00:42;3.00;;;2.70;;
20090;SDS011;10205;49.678;6.560;2024-03-06T00:03:09;4.15;;;2.80;;
20090;SDS011;10205;49.678;6.560;2024-03-06T00:05:37;3.33;;;2.70;;
20090;SDS011;10205;49.678;6.560;2024-03-06T00:08:04;3.22;;;2.47;;
20090;SDS011;10205;49.678;6.560;2024-03-06T00:10:32;3.50;;;2.95;;
20090;SDS011;10205;49.678;6.560;2024-03-06T00:12:59;3.42;;;2.55;;
20090;SDS011;10205;49.678;6.560;2024-03-06T00:15:26;4.25;;;2.58;;
20090;SDS011;10205;49.678;6.560;2024-03-06T00:17:53;4.57;;;2.80;;
20090;SDS011;10205;49.678;6.560;2024-03-06T00:20:20;3.28;;;2.42;;
20090;SDS011;10205;49.678;6.560;2024-03-06T00:22:49;2.75;;;2.53;;
20090;SDS011;10205;49.678;6.560;2024-03-06T00:25:16;3.63;;;2.50;;
20090;SDS011;10205;49.678;6.560;2024-03-06T00:27:43;3.42;;;2.70;;
20090;SDS011;10205;49.678;6.560;2024-03-06T00:30:10;3.38;;;2.75;;
20090;SDS011;10205;49.678;6.560;2024-03-06T00:32:38;3.40;;;2.80;;
20090;SDS011;10205;49.678;6.560;2024-03-06T00:35:05;3.53;;;2.90;;
20090;SDS011;10205;49.678;6.560;2024-03-06T00:37:32;4.07;;;2.70;;
20090;SDS011;10205;49.678;6.560;2024-03-06T00:40:01;3.63;;;2.50;;
20090;SDS011;10205;49.678;6.560;2024-03-06T00:42:28;2.90;;;2.20;;
20090;SDS011;10205;49.678;6.560;2024-03-06T00:44:56;3.67;;;2.80;;
20090;SDS011;10205;49.678;6.560;2024-03-06T00:47:23;4.93;;;2.80;;
20090;SDS011;10205;49.678;6.560;2024-03-06T00:49:50;2.88;;;2.45;;
20090;SDS011;10205;49.678;6.560;2024-03-06T00:52:17;2.92;;;2.70;;
20090;SDS011;10205;49.678;6.560;2024-03-06T00:54:44;3.85;;;2.78;;
20090;SDS011;10205;49.678;6.560;2024-03-06T00:57:12;3.78;;;2.63;;
20090;SDS011;10205;49.678;6.560;2024-03-06T00:59:39;4.28;;;2.83;;
20090;SDS011;10205;49.678;6.560;2024-03-06T01:02:06;5.28;;;2.60;;
20090;SDS011;10205;49.678;6.560;2024-03-06T01:04:36;3.72;;;2.70;;
20090;SDS011;10205;49.678;6.560;2024-03-06T01:07:03;3.38;;;2.80;;
20090;SDS011;10205;49.678;6.560;2024-03-06T01:09:30;3.13;;;2.75;;
20090;SDS011;10205;49.678;6.560;2024-03-06T01:11:57;3.75;;;2.92;;
20090;SDS011;10205;49.678;6.560;2024-03-06T01:14:25;3.42;;;2.75;;
20090;SDS011;10205;49.678;6.560;2024-03-06T01:16:52;3.08;;;2.70;;
20090;SDS011;10205;49.678;6.560;2024-03-06T01:19:19;3.42;;;2.75;;
20090;SDS011;10205;49.678;6.560;2024-03-06T01:21:46;4.32;;;2.85;;
20090;SDS011;10205;49.678;6.560;2024-03-06T01:24:13;4.03;;;2.63;;
20090;SDS011;10205;49.678;6.560;2024-03-06T01:26:40;4.45;;;2.60;;
20090;SDS011;10205;49.678;6.560;2024-03-06T01:29:07;3.17;;;2.83;;
20090;SDS011;10205;49.678;6.560;2024-03-06T01:31:36;3.42;;;2.53;;
20090;SDS011;10205;49.678;6.560;2024-03-06T01:34:03;4.10;;;2.95;;
20090;SDS011;10205;49.678;6.560;2024-03-06T01:36:30;2.92;;;2.50;;
20090;SDS011;10205;49.678;6.560;2024-03-06T01:38:58;4.05;;;2.40;;
20090;SDS011;10205;49.678;6.560;2024-03-06T01:41:25;4.88;;;2.90;;
20090;SDS011;10205;49.678;6.560;2024-03-06T01:43:52;3.63;;;2.80;;
20090;SDS011;10205;49.678;6.560;2024-03-06T01:46:19;3.25;;;2.95;;
20090;SDS011;10205;49.678;6.560;2024-03-06T01:48:47;4.00;;;2.60;;
20090;SDS011;10205;49.678;6.560;2024-03-06T01:51:15;2.75;;;2.55;;
20090;SDS011;10205;49.678;6.560;2024-03-06T01:53:42;3.87;;;2.87;;
20090;SDS011;10205;49.678;6.560;2024-03-06T01:56:09;3.38;;;2.58;;
20090;SDS011;10205;49.678;6.560;2024-03-06T01:58:42;3.63;;;2.70;;
20090;SDS011;10205;49.678;6.560;2024-03-06T02:01:11;3.10;;;2.53;;
20090;SDS011;10205;49.678;6.560;2024-03-06T02:03:39;2.58;;;2.38;;
20090;SDS011;10205;49.678;6.560;2024-03-06T02:06:07;3.40;;;2.53;;
20090;SDS011;10205;49.678;6.560;2024-03-06T02:08:38;3.22;;;2.53;;
20090;SDS011;10205;49.678;6.560;2024-03-06T02:11:05;3.30;;;2.45;;
20090;SDS011;10205;49.678;6.560;2024-03-06T02:13:33;3.40;;;2.85;;
20090;SDS011;10205;49.678;6.560;2024-03-06T02:16:00;2.97;;;2.60;;
20090;SDS011;10205;49.678;6.560;2024-03-06T02:18:27;2.70;;;2.20;;
20090;SDS011;10205;49.678;6.560;2024-03-06T02:20:56;2.85;;;2.50;;
20090;SDS011;10205;49.678;6.560;2024-03-06T02:23:23;3.47;;;2.10;;
20090;SDS011;10205;49.678;6.560;2024-03-06T02:25:50;2.63;;;2.42;;
20090;SDS011;10205;49.678;6.560;2024-03-06T02:28:17;2.80;;;2.30;;
20090;SDS011;10205;49.678;6.560;2024-03-06T02:30:44;2.95;;;2.42;;
20090;SDS011;10205;49.678;6.560;2024-03-06T02:33:13;3.97;;;2.90;;
20090;SDS011;10205;49.678;6.560;2024-03-06T02:35:40;3.03;;;2.73;;
20090;SDS011;10205;49.678;6.560;2024-03-06T02:38:10;2.67;;;2.10;;
20090;SDS011;10205;49.678;6.560;2024-03-06T02:40:37;2.30;;;2.10;;
20090;SDS011;10205;49.678;6.560;2024-03-06T02:43:04;2.80;;;2.60;;
20090;SDS011;10205;49.678;6.560;2024-03-06T02:45:31;3.33;;;2.60;;
20090;SDS011;10205;49.678;6.560;2024-03-06T02:47:58;2.93;;;2.60;;
20090;SDS011;10205;49.678;6.560;2024-03-06T02:50:25;3.50;;;2.67;;
20090;SDS011;10205;49.678;6.560;2024-03-06T02:52:53;3.13;;;2.83;;
20090;SDS011;10205;49.678;6.560;2024-03-06T02:55:21;3.65;;;2.85;;
20090;SDS011;10205;49.678;6.560;2024-03-06T02:57:49;5.70;;;3.22;;
20090;SDS011;10205;49.678;6.560;2024-03-06T03:00:16;4.45;;;2.55;;
20090;SDS011;10205;49.678;6.560;2024-03-06T03:02:43;3.03;;;2.72;;
20090;SDS011;10205;49.678;6.560;2024-03-06T03:05:10;3.70;;;2.90;;
20090;SDS011;10205;49.678;6.560;2024-03-06T03:07:37;3.30;;;2.92;;
20090;SDS011;10205;49.678;6.560;2024-03-06T03:10:05;4.15;;;2.95;;
20090;SDS011;10205;49.678;6.560;2024-03-06T03:12:37;4.25;;;2.70;;
20090;SDS011;10205;49.678;6.560;2024-03-06T03:15:05;3.17;;;2.88;;
20090;SDS011;10205;49.678;6.560;2024-03-06T03:17:33;4.45;;;2.63;;
20090;SDS011;10205;49.678;6.560;2024-03-06T03:20:00;3.35;;;3.05;;
20090;SDS011;10205;49.678;6.560;2024-03-06T03:22:34;3.37;;;2.93;;
20090;SDS011;10205;49.678;6.560;2024-03-06T03:25:02;6.20;;;3.03;;
20090;SDS011;10205;49.678;6.560;2024-03-06T03:27:32;3.13;;;2.75;;
20090;SDS011;10205;49.678;6.560;2024-03-06T03:30:00;2.93;;;2.67;;
20090;SDS011;10205;49.678;6.560;2024-03-06T03:32:28;3.25;;;2.70;;
20090;SDS011;10205;49.678;6.560;2024-03-06T03:34:55;4.55;;;3.10;;
20090;SDS011;10205;49.678;6.560;2024-03-06T03:37:22;3.30;;;2.80;;
20090;SDS011;10205;49.678;6.560;2024-03-06T03:39:49;3.95;;;3.38;;
20090;SDS011;10205;49.678;6.560;2024-03-06T03:42:16;3.20;;;2.90;;
20090;SDS011;10205;49.678;6.560;2024-03-06T03:44:44;3.90;;;3.20;;
20090;SDS011;10205;49.678;6.560;2024-03-06T03:47:12;4.22;;;3.17;;
20090;SDS011;10205;49.678;6.560;2024-03-06T03:49:39;3.87;;;2.93;;
20090;SDS011;10205;49.678;6.560;2024-03-06T03:52:06;3.90;;;2.83;;
20090;SDS011;10205;49.678;6.560;2024-03-06T03:54:34;3.55;;;2.90;;
20090;SDS011;10205;49.678;6.560;2024-03-06T03:57:01;3.45;;;2.83;;
20090;SDS011;10205;49.678;6.560;2024-03-06T03:59:28;4.63;;;3.23;;
20090;SDS011;10205;49.678;6.560;2024-03-06T04:01:55;3.78;;;3.25;;
20090;SDS011;10205;49.678;6.560;2024-03-06T04:04:24;5.13;;;2.83;;
20090;SDS011;10205;49.678;6.560;2024-03-06T04:06:51;3.05;;;2.70;;
20090;SDS011;10205;49.678;6.560;2024-03-06T04:09:18;3.47;;;2.90;;
20090;SDS011;10205;49.678;6.560;2024-03-06T04:11:45;3.92;;;3.00;;
20090;SDS011;10205;49.678;6.560;2024-03-06T04:14:12;4.53;;;2.97;;
20090;SDS011;10205;49.678;6.560;2024-03-06T04:16:39;3.78;;;3.45;;
20090;SDS011;10205;49.678;6.560;2024-03-06T04:19:06;3.28;;;2.60;;
20090;SDS011;10205;49.678;6.560;2024-03-06T04:21:35;3.00;;;2.70;;
20090;SDS011;10205;49.678;6.560;2024-03-06T04:24:07;4.30;;;2.75;;
20090;SDS011;10205;49.678;6.560;2024-03-06T04:26:34;10.65;;;4.10;;
20090;SDS011;10205;49.678;6.560;2024-03-06T04:29:02;4.22;;;3.35;;
20090;SDS011;10205;49.678;6.560;2024-03-06T04:31:29;4.00;;;3.20;;
20090;SDS011;10205;49.678;6.560;2024-03-06T04:33:56;5.38;;;4.03;;
20090;SDS011;10205;49.678;6.560;2024-03-06T04:36:23;6.05;;;3.70;;
20090;SDS011;10205;49.678;6.560;2024-03-06T04:38:51;4.70;;;4.13;;
20090;SDS011;10205;49.678;6.560;2024-03-06T04:41:18;6.13;;;3.70;;
20090;SDS011;10205;49.678;6.560;2024-03-06T04:43:45;3.90;;;3.60;;
20090;SDS011;10205;49.678;6.560;2024-03-06T04:46:13;4.77;;;3.80;;
20090;SDS011;10205;49.678;6.560;2024-03-06T04:48:40;5.18;;;3.55;;
20090;SDS011;10205;49.678;6.560;2024-03-06T04:51:07;3.70;;;3.15;;
20090;SDS011;10205;49.678;6.560;2024-03-06T04:53:35;3.50;;;3.20;;
20090;SDS011;10205;49.678;6.560;2024-03-06T04:56:03;5.93;;;3.97;;
20090;SDS011;10205;49.678;6.560;2024-03-06T04:58:32;5.28;;;3.85;;
20090;SDS011;10205;49.678;6.560;2024-03-06T05:00:59;4.53;;;4.00;;
20090;SDS011;10205;49.678;6.560;2024-03-06T05:03:26;4.38;;;3.55;;
20090;SDS011;10205;49.678;6.560;2024-03-06T05:05:53;4.25;;;3.47;;
20090;SDS011;10205;49.678;6.560;2024-03-06T05:08:20;6.32;;;4.05;;
20090;SDS011;10205;49.678;6.560;2024-03-06T05:10:47;4.45;;;4.03;;
20090;SDS011;10205;49.678;6.560;2024-03-06T05:13:16;4.47;;;3.93;;
20090;SDS011;10205;49.678;6.560;2024-03-06T05:15:43;7.28;;;4.57;;
20090;SDS011;10205;49.678;6.560;2024-03-06T05:18:10;5.38;;;3.83;;
20090;SDS011;10205;49.678;6.560;2024-03-06T05:20:37;4.90;;;4.18;;
20090;SDS011;10205;49.678;6.560;2024-03-06T05:23:04;5.87;;;4.07;;
20090;SDS011;10205;49.678;6.560;2024-03-06T05:25:31;4.60;;;3.53;;
20090;SDS011;10205;49.678;6.560;2024-03-06T05:27:58;4.40;;;3.43;;
20090;SDS011;10205;49.678;6.560;2024-03-06T05:30:26;5.13;;;4.30;;
20090;SDS011;10205;49.678;6.560;2024-03-06T05:32:54;5.78;;;4.30;;
20090;SDS011;10205;49.678;6.560;2024-03-06T05:35:22;4.70;;;4.20;;
20090;SDS011;10205;49.678;6.560;2024-03-06T05:37:49;5.10;;;4.60;;
20090;SDS011;10205;49.678;6.560;2024-03-06T05:40:16;5.13;;;4.03;;
20090;SDS011;10205;49.678;6.560;2024-03-06T05:42:43;5.50;;;4.22;;
20090;SDS011;10205;49.678;6.560;2024-03-06T05:45:11;5.40;;;3.85;;
20090;SDS011;10205;49.678;6.560;2024-03-06T05:47:39;5.73;;;4.30;;
20090;SDS011;10205;49.678;6.560;2024-03-06T05:50:06;4.90;;;3.78;;
20090;SDS011;10205;49.678;6.560;2024-03-06T05:52:36;6.60;;;4.20;;
20090;SDS011;10205;49.678;6.560;2024-03-06T05:55:03;4.70;;;4.22;;
20090;SDS011;10205;49.678;6.560;2024-03-06T05:57:32;8.60;;;4.50;;
20090;SDS011;10205;49.678;6.560;2024-03-06T05:59:59;5.20;;;4.50;;
20090;SDS011;10205;49.678;6.560;2024-03-06T06:02:26;5.00;;;4.20;;
20090;SDS011;10205;49.678;6.560;2024-03-06T06:04:54;5.70;;;4.22;;
20090;SDS011;10205;49.678;6.560;2024-03-06T06:07:21;5.03;;;4.53;;
20090;SDS011;10205;49.678;6.560;2024-03-06T06:09:48;5.43;;;4.17;;
20090;SDS011;10205;49.678;6.560;2024-03-06T06:12:16;4.05;;;3.70;;
20090;SDS011;10205;49.678;6.560;2024-03-06T06:14:43;4.60;;;3.90;;
20090;SDS011;10205;49.678;6.560;2024-03-06T06:17:10;5.87;;;4.10;;
20090;SDS011;10205;49.678;6.560;2024-03-06T06:19:38;5.00;;;3.80;;
20090;SDS011;10205;49.678;6.560;2024-03-06T06:22:09;4.63;;;3.95;;
20090;SDS011;10205;49.678;6.560;2024-03-06T06:24:36;5.15;;;4.30;;
20090;SDS011;10205;49.678;6.560;2024-03-06T06:27:03;5.75;;;4.20;;
20090;SDS011;10205;49.678;6.560;2024-03-06T06:29:31;5.27;;;4.77;;
20090;SDS011;10205;49.678;6.560;2024-03-06T06:32:00;4.85;;;4.43;;
20090;SDS011;10205;49.678;6.560;2024-03-06T06:34:27;5.25;;;4.55;;
20090;SDS011;10205;49.678;6.560;2024-03-06T06:36:54;5.75;;;5.07;;
20090;SDS011;10205;49.678;6.560;2024-03-06T06:39:23;5.80;;;4.10;;
20090;SDS011;10205;49.678;6.560;2024-03-06T06:41:50;5.55;;;4.28;;
20090;SDS011;10205;49.678;6.560;2024-03-06T06:44:17;5.55;;;4.32;;
20090;SDS011;10205;49.678;6.560;2024-03-06T06:46:44;9.00;;;4.85;;
20090;SDS011;10205;49.678;6.560;2024-03-06T06:49:11;4.93;;;4.43;;
20090;SDS011;10205;49.678;6.560;2024-03-06T06:51:38;5.70;;;5.10;;
20090;SDS011;10205;49.678;6.560;2024-03-06T06:54:05;5.57;;;4.55;;
20090;SDS011;10205;49.678;6.560;2024-03-06T06:56:33;5.15;;;4.65;;
20090;SDS011;10205;49.678;6.560;2024-03-06T06:59:02;5.77;;;5.20;;
20090;SDS011;10205;49.678;6.560;2024-03-06T07:01:29;22.97;;;5.47;;
20090;SDS011;10205;49.678;6.560;2024-03-06T07:03:56;5.15;;;4.53;;
20090;SDS011;10205;49.678;6.560;2024-03-06T07:06:23;5.83;;;4.03;;
20090;SDS011;10205;49.678;6.560;2024-03-06T07:08:50;6.30;;;5.70;;
20090;SDS011;10205;49.678;6.560;2024-03-06T07:11:17;8.97;;;4.93;;
20090;SDS011;10205;49.678;6.560;2024-03-06T07:13:46;5.45;;;4.95;;
20090;SDS011;10205;49.678;6.560;2024-03-06T07:16:13;6.03;;;4.72;;
20090;SDS011;10205;49.678;6.560;2024-03-06T07:18:40;5.63;;;5.03;;
20090;SDS011;10205;49.678;6.560;2024-03-06T07:21:07;5.83;;;4.47;;
20090;SDS011;10205;49.678;6.560;2024-03-06T07:23:34;6.07;;;5.03;;
20090;SDS011;10205;49.678;6.560;2024-03-06T07:26:01;6.47;;;4.50;;
20090;SDS011;10205;49.678;6.560;2024-03-06T07:28:29;5.35;;;4.50;;
20090;SDS011;10205;49.678;6.560;2024-03-06T07:30:57;5.95;;;4.50;;
20090;SDS011;10205;49.678;6.560;2024-03-06T07:33:24;6.60;;;5.10;;
20090;SDS011;10205;49.678;6.560;2024-03-06T07:35:51;9.45;;;4.82;;
20090;SDS011;10205;49.678;6.560;2024-03-06T07:38:18;4.93;;;4.32;;
20090;SDS011;10205;49.678;6.560;2024-03-06T07:40:46;5.27;;;4.60;;
20090;SDS011;10205;49.678;6.560;2024-03-06T07:43:13;7.60;;;5.13;;
20090;SDS011;10205;49.678;6.560;2024-03-06T07:45:40;5.03;;;4.33;;
20090;SDS011;10205;49.678;6.560;2024-03-06T07:48:09;6.60;;;4.90;;
20090;SDS011;10205;49.678;6.560;2024-03-06T07:50:36;6.17;;;5.30;;
20090;SDS011;10205;49.678;6.560;2024-03-06T07:53:04;13.33;;;5.40;;
20090;SDS011;10205;49.678;6.560;2024-03-06T07:55:31;5.97;;;4.80;;
20090;SDS011;10205;49.678;6.560;2024-03-06T07:57:58;6.63;;;5.03;;
20090;SDS011;10205;49.678;6.560;2024-03-06T08:00:25;5.80;;;4.57;;
20090;SDS011;10205;49.678;6.560;2024-03-06T08:02:53;6.17;;;4.63;;
20090;SDS011;10205;49.678;6.560;2024-03-06T08:05:21;6.33;;;5.50;;
20090;SDS011;10205;49.678;6.560;2024-03-06T08:07:48;6.67;;;5.27;;
20090;SDS011;10205;49.678;6.560;2024-03-06T08:10:15;6.30;;;5.37;;
20090;SDS011;10205;49.678;6.560;2024-03-06T08:12:44;6.68;;;6.07;;
20090;SDS011;10205;49.678;6.560;2024-03-06T08:15:13;6.30;;;4.95;;
20090;SDS011;10205;49.678;6.560;2024-03-06T08:17:41;6.88;;;5.05;;
20090;SDS011;10205;49.678;6.560;2024-03-06T08:20:10;6.85;;;6.15;;
20090;SDS011;10205;49.678;6.560;2024-03-06T08:22:43;6.70;;;5.93;;
20090;SDS011;10205;49.678;6.560;2024-03-06T08:25:13;8.23;;;5.67;;
20090;SDS011;10205;49.678;6.560;2024-03-06T08:27:41;7.00;;;4.97;;
20090;SDS011;10205;49.678;6.560;2024-03-06T08:30:08;7.93;;;5.27;;
20090;SDS011;10205;49.678;6.560;2024-03-06T08:32:36;6.50;;;4.73;;
20090;SDS011;10205;49.678;6.560;2024-03-06T08:35:03;7.03;;;5.30;;
20090;SDS011;10205;49.678;6.560;2024-03-06T08:37:32;9.43;;;6.95;;
20090;SDS011;10205;49.678;6.560;2024-03-06T08:40:00;8.77;;;6.70;;
20090;SDS011;10205;49.678;6.560;2024-03-06T08:42:28;8.10;;;5.82;;
20090;SDS011;10205;49.678;6.560;2024-03-06T08:44:55;9.23;;;5.47;;
20090;SDS011;10205;49.678;6.560;2024-03-06T08:47:24;9.67;;;5.00;;
20090;SDS011;10205;49.678;6.560;2024-03-06T08:49:52;11.90;;;6.90;;
20090;SDS011;10205;49.678;6.560;2024-03-06T08:52:19;9.03;;;6.07;;
20090;SDS011;10205;49.678;6.560;2024-03-06T08:54:47;7.27;;;6.00;;
20090;SDS011;10205;49.678;6.560;2024-03-06T08:57:15;7.30;;;5.60;;
20090;SDS011;10205;49.678;6.560;2024-03-06T08:59:42;6.97;;;5.17;;
20090;SDS011;10205;49.678;6.560;2024-03-06T09:02:13;7.23;;;6.50;;
20090;SDS011;10205;49.678;6.560;2024-03-06T09:04:41;8.33;;;7.10;;
20090;SDS011;10205;49.678;6.560;2024-03-06T09:07:08;7.43;;;6.63;;
20090;SDS011;10205;49.678;6.560;2024-03-06T09:09:36;8.67;;;6.20;;
20090;SDS011;10205;49.678;6.560;2024-03-06T09:12:04;9.57;;;6.07;;
20090;SDS011;10205;49.678;6.560;2024-03-06T09:14:36;7.63;;;5.85;;
20090;SDS011;10205;49.678;6.560;2024-03-06T09:17:08;7.45;;;6.63;;
20090;SDS011;10205;49.678;6.560;2024-03-06T09:19:35;8.07;;;5.90;;
20090;SDS011;10205;49.678;6.560;2024-03-06T09:22:02;7.17;;;5.77;;
20090;SDS011;10205;49.678;6.560;2024-03-06T09:24:30;7.07;;;5.50;;
20090;SDS011;10205;49.678;6.560;2024-03-06T09:26:57;9.07;;;5.47;;
20090;SDS011;10205;49.678;6.560;2024-03-06T09:29:24;6.77;;;6.07;;
20090;SDS011;10205;49.678;6.560;2024-03-06T09:31:52;8.02;;;6.97;;
20090;SDS011;10205;49.678;6.560;2024-03-06T09:34:19;6.60;;;5.73;;
20090;SDS011;10205;49.678;6.560;2024-03-06T09:36:47;6.45;;;5.55;;
20090;SDS011;10205;49.678;6.560;2024-03-06T09:39:15;7.03;;;6.30;;
20090;SDS011;10205;49.678;6.560;2024-03-06T09:41:45;7.35;;;5.55;;
20090;SDS011;10205;49.678;6.560;2024-03-06T09:44:14;7.70;;;6.90;;
20090;SDS011;10205;49.678;6.560;2024-03-06T09:46:42;8.50;;;7.28;;
20090;SDS011;10205;49.678;6.560;2024-03-06T09:49:12;7.17;;;6.47;;
20090;SDS011;10205;49.678;6.560;2024-03-06T09:51:41;8.02;;;7.20;;
20090;SDS011;10205;49.678;6.560;2024-03-06T09:54:11;9.67;;;6.30;;
20090;SDS011;10205;49.678;6.560;2024-03-06T09:56:41;7.60;;;5.63;;
20090;SDS011;10205;49.678;6.560;2024-03-06T09:59:10;7.30;;;5.68;;
20090;SDS011;10205;49.678;6.560;2024-03-06T10:01:39;9.13;;;6.30;;
20090;SDS011;10205;49.678;6.560;2024-03-06T10:04:19;6.90;;;5.60;;
20090;SDS011;10205;49.678;6.560;2024-03-06T10:06:47;7.20;;;6.28;;
20090;SDS011;10205;49.678;6.560;2024-03-06T10:09:16;7.75;;;6.55;;
20090;SDS011;10205;49.678;6.560;2024-03-06T10:11:44;7.63;;;6.28;;
20090;SDS011;10205;49.678;6.560;2024-03-06T10:14:12;8.70;;;7.03;;
20090;SDS011;10205;49.678;6.560;2024-03-06T10:16:51;8.70;;;7.73;;
20090;SDS011;10205;49.678;6.560;2024-03-06T10:19:22;7.50;;;6.70;;
20090;SDS011;10205;49.678;6.560;2024-03-06T10:21:52;7.40;;;6.10;;
20090;SDS011;10205;49.678;6.560;2024-03-06T10:24:20;8.63;;;7.30;;
20090;SDS011;10205;49.678;6.560;2024-03-06T10:26:49;7.63;;;5.97;;
20090;SDS011;10205;49.678;6.560;2024-03-06T10:29:19;6.65;;;5.95;;
20090;SDS011;10205;49.678;6.560;2024-03-06T10:31:49;6.93;;;5.75;;
20090;SDS011;10205;49.678;6.560;2024-03-06T10:34:19;8.93;;;6.68;;
20090;SDS011;10205;49.678;6.560;2024-03-06T10:36:50;7.32;;;6.50;;
20090;SDS011;10205;49.678;6.560;2024-03-06T10:39:21;8.10;;;6.03;;
20090;SDS011;10205;49.678;6.560;2024-03-06T10:41:51;9.20;;;6.07;;
20090;SDS011;10205;49.678;6.560;2024-03-06T10:44:20;8.80;;;6.50;;
20090;SDS011;10205;49.678;6.560;2024-03-06T10:46:51;7.85;;;5.90;;
20090;SDS011;10205;49.678;6.560;2024-03-06T10:49:25;7.80;;;5.80;;
20090;SDS011;10205;49.678;6.560;2024-03-06T10:51:56;7.53;;;6.72;;
20090;SDS011;10205;49.678;6.560;2024-03-06T10:54:26;8.02;;;6.25;;
20090;SDS011;10205;49.678;6.560;2024-03-06T10:56:56;7.75;;;6.63;;
20090;SDS011;10205;49.678;6.560;2024-03-06T10:59:25;8.52;;;7.50;;
20090;SDS011;10205;49.678;6.560;2024-03-06T11:01:54;8.17;;;6.23;;
20090;SDS011;10205;49.678;6.560;2024-03-06T11:04:22;8.13;;;6.03;;
20090;SDS011;10205;49.678;6.560;2024-03-06T11:06:53;6.88;;;6.03;;
20090;SDS011;10205;49.678;6.560;2024-03-06T11:09:22;5.60;;;4.95;;
20090;SDS011;10205;49.678;6.560;2024-03-06T11:11:50;6.70;;;6.00;;
20090;SDS011;10205;49.678;6.560;2024-03-06T11:14:18;7.30;;;5.75;;
20090;SDS011;10205;49.678;6.560;2024-03-06T11:16:59;9.18;;;5.68;;
20090;SDS011;10205;49.678;6.560;2024-03-06T11:19:28;7.53;;;6.07;;
20090;SDS011;10205;49.678;6.560;2024-03-06T11:21:57;8.10;;;6.65;;
20090;SDS011;10205;49.678;6.560;2024-03-06T11:24:31;6.80;;;5.90;;
20090;SDS011;10205;49.678;6.560;2024-03-06T11:26:59;6.53;;;5.40;;
20090;SDS011;10205;49.678;6.560;2024-03-06T11:29:28;7.43;;;6.28;;
20090;SDS011;10205;49.678;6.560;2024-03-06T11:32:16;6.72;;;5.97;;
20090;SDS011;10205;49.678;6.560;2024-03-06T11:34:48;7.80;;;5.72;;
20090;SDS011;10205;49.678;6.560;2024-03-06T11:37:19;7.78;;;6.05;;
20090;SDS011;10205;49.678;6.560;2024-03-06T11:39:48;8.40;;;5.80;;
20090;SDS011;10205;49.678;6.560;2024-03-06T11:42:15;8.48;;;7.20;;
20090;SDS011;10205;49.678;6.560;2024-03-06T11:44:52;6.82;;;5.70;;
20090;SDS011;10205;49.678;6.560;2024-03-06T11:47:22;9.18;;;6.63;;
20090;SDS011;10205;49.678;6.560;2024-03-06T11:49:49;7.43;;;6.15;;
20090;SDS011;10205;49.678;6.560;2024-03-06T11:52:20;8.48;;;6.10;;
20090;SDS011;10205;49.678;6.560;2024-03-06T11:54:48;7.40;;;5.93;;
20090;SDS011;10205;49.678;6.560;2024-03-06T11:57:15;9.38;;;6.45;;
20090;SDS011;10205;49.678;6.560;2024-03-06T11:59:45;7.60;;;6.38;;
20090;SDS011;10205;49.678;6.560;2024-03-06T12:02:12;7.38;;;5.70;;
20090;SDS011;10205;49.678;6.560;2024-03-06T12:04:40;8.45;;;5.72;;
20090;SDS011;10205;49.678;6.560;2024-03-06T12:07:07;7.05;;;5.85;;
20090;SDS011;10205;49.678;6.560;2024-03-06T12:09:37;8.77;;;6.35;;
20090;SDS011;10205;49.678;6.560;2024-03-06T12:12:05;9.07;;;6.63;;
20090;SDS011;10205;49.678;6.560;2024-03-06T12:14:35;8.90;;;6.50;;
20090;SDS011;10205;49.678;6.560;2024-03-06T12:17:04;7.90;;;6.25;;
20090;SDS011;10205;49.678;6.560;2024-03-06T12:19:34;6.75;;;5.75;;
20090;SDS011;10205;49.678;6.560;2024-03-06T12:22:02;7.85;;;5.97;;
20090;SDS011;10205;49.678;6.560;2024-03-06T12:24:30;6.85;;;5.85;;
20090;SDS011;10205;49.678;6.560;2024-03-06T12:26:59;8.40;;;5.82;;
20090;SDS011;10205;49.678;6.560;2024-03-06T12:29:28;7.97;;;5.88;;
20090;SDS011;10205;49.678;6.560;2024-03-06T12:31:57;7.30;;;6.32;;
20090;SDS011;10205;49.678;6.560;2024-03-06T12:34:24;6.22;;;5.30;;
20090;SDS011;10205;49.678;6.560;2024-03-06T12:36:51;7.32;;;5.68;;
20090;SDS011;10205;49.678;6.560;2024-03-06T12:39:19;7.57;;;5.75;;
20090;SDS011;10205;49.678;6.560;2024-03-06T12:41:48;6.53;;;5.05;;
20090;SDS011;10205;49.678;6.560;2024-03-06T12:44:18;8.15;;;5.75;;
20090;SDS011;10205;49.678;6.560;2024-03-06T12:46:46;7.55;;;5.72;;
20090;SDS011;10205;49.678;6.560;2024-03-06T12:49:14;6.70;;;5.60;;
20090;SDS011;10205;49.678;6.560;2024-03-06T12:51:41;6.72;;;6.00;;
20090;SDS011;10205;49.678;6.560;2024-03-06T12:54:09;7.22;;;6.10;;
20090;SDS011;10205;49.678;6.560;2024-03-06T12:56:36;6.45;;;5.38;;
20090;SDS011;10205;49.678;6.560;2024-03-06T12:59:03;5.80;;;5.05;;
20090;SDS011;10205;49.678;6.560;2024-03-06T13:01:31;7.65;;;5.80;;
20090;SDS011;10205;49.678;6.560;2024-03-06T13:03:58;6.53;;;5.32;;
20090;SDS011;10205;49.678;6.560;2024-03-06T13:06:25;6.65;;;5.28;;
20090;SDS011;10205;49.678;6.560;2024-03-06T13:08:54;7.40;;;6.38;;
20090;SDS011;10205;49.678;6.560;2024-03-06T13:11:21;7.47;;;6.07;;
20090;SDS011;10205;49.678;6.560;2024-03-06T13:13:50;7.55;;;5.45;;
20090;SDS011;10205;49.678;6.560;2024-03-06T13:16:18;7.25;;;5.88;;
20090;SDS011;10205;49.678;6.560;2024-03-06T13:18:48;6.28;;;5.13;;
20090;SDS011;10205;49.678;6.560;2024-03-06T13:21:17;6.25;;;5.65;;
20090;SDS011;10205;49.678;6.560;2024-03-06T13:23:44;6.95;;;6.10;;
20090;SDS011;10205;49.678;6.560;2024-03-06T13:26:11;7.93;;;5.65;;
20090;SDS011;10205;49.678;6.560;2024-03-06T13:28:39;6.10;;;5.07;;
20090;SDS011;10205;49.678;6.560;2024-03-06T13:31:06;5.28;;;4.78;;
20090;SDS011;10205;49.678;6.560;2024-03-06T13:33:33;7.35;;;4.65;;
20090;SDS011;10205;49.678;6.560;2024-03-06T13:36:01;6.35;;;5.28;;
20090;SDS011;10205;49.678;6.560;2024-03-06T13:38:29;5.30;;;4.53;;
20090;SDS011;10205;49.678;6.560;2024-03-06T13:40:56;6.22;;;4.72;;
20090;SDS011;10205;49.678;6.560;2024-03-06T13:43:23;5.82;;;5.22;;
20090;SDS011;10205;49.678;6.560;2024-03-06T13:45:50;8.13;;;5.40;;
20090;SDS011;10205;49.678;6.560;2024-03-06T13:48:17;6.35;;;5.13;;
20090;SDS011;10205;49.678;6.560;2024-03-06T13:50:45;7.63;;;5.07;;
20090;SDS011;10205;49.678;6.560;2024-03-06T13:53:17;6.72;;;4.97;;
20090;SDS011;10205;49.678;6.560;2024-03-06T13:55:44;7.70;;;5.10;;
20090;SDS011;10205;49.678;6.560;2024-03-06T13:58:11;6.65;;;4.50;;
20090;SDS011;10205;49.678;6.560;2024-03-06T14:00:38;5.45;;;4.78;;
20090;SDS011;10205;49.678;6.560;2024-03-06T14:03:05;7.05;;;5.40;;
20090;SDS011;10205;49.678;6.560;2024-03-06T14:05:32;7.20;;;5.05;;
20090;SDS011;10205;49.678;6.560;2024-03-06T14:07:59;5.90;;;5.00;;
20090;SDS011;10205;49.678;6.560;2024-03-06T14:10:27;6.18;;;4.47;;
20090;SDS011;10205;49.678;6.560;2024-03-06T14:12:58;7.47;;;5.25;;
20090;SDS011;10205;49.678;6.560;2024-03-06T14:15:25;5.25;;;4.75;;
20090;SDS011;10205;49.678;6.560;2024-03-06T14:17:52;5.75;;;4.65;;
20090;SDS011;10205;49.678;6.560;2024-03-06T14:20:20;6.68;;;4.53;;
20090;SDS011;10205;49.678;6.560;2024-03-06T14:22:48;7.47;;;4.35;;
20090;SDS011;10205;49.678;6.560;2024-03-06T14:25:16;6.20;;;4.65;;
20090;SDS011;10205;49.678;6.560;2024-03-06T14:27:45;6.78;;;4.85;;
20090;SDS011;10205;49.678;6.560;2024-03-06T14:30:12;6.10;;;4.45;;
20090;SDS011;10205;49.678;6.560;2024-03-06T14:32:40;6.47;;;4.35;;
20090;SDS011;10205;49.678;6.560;2024-03-06T14:35:08;6.40;;;4.28;;
20090;SDS011;10205;49.678;6.560;2024-03-06T14:37:35;5.45;;;4.30;;
20090;SDS011;10205;49.678;6.560;2024-03-06T14:40:04;5.05;;;3.83;;
20090;SDS011;10205;49.678;6.560;2024-03-06T14:42:33;5.28;;;4.00;;
20090;SDS011;10205;49.678;6.560;2024-03-06T14:45:02;6.82;;;4.25;;
20090;SDS011;10205;49.678;6.560;2024-03-06T14:47:31;6.43;;;3.83;;
20090;SDS011;10205;49.678;6.560;2024-03-06T14:49:58;4.70;;;3.95;;
20090;SDS011;10205;49.678;6.560;2024-03-06T14:52:25;4.55;;;3.80;;